createdAt,value
2022-11-16T19:27:18.532Z,99061.60
2022-11-16T19:28:55.085Z,99061.60
2022-11-16T19:30:27.027Z,99066.00
2022-11-16T19:32:00.172Z,99066.00
2022-11-16T19:33:32.234Z,99058.60
2022-11-16T19:35:06.875Z,99057.60
2022-11-16T19:36:42.018Z,99060.40
2022-11-16T19:38:14.637Z,99052.40
2022-11-16T19:39:49.450Z,99050.20
2022-11-16T19:41:25.084Z,99040.80
2022-11-16T19:42:57.394Z,99042.80
2022-11-16T19:44:29.296Z,99047.20
2022-11-16T19:46:17.461Z,99046.60
2022-11-16T19:47:51.265Z,99045.20
2022-11-16T19:49:24.435Z,99042.00
2022-11-16T19:50:56.640Z,99037.80
2022-11-16T19:52:31.477Z,99033.40
2022-11-16T19:54:06.425Z,99031.60
2022-11-16T19:55:40.141Z,99037.40
2022-11-16T19:57:20.664Z,99037.40
2022-11-16T19:58:56.697Z,99032.20
2022-11-16T20:00:28.600Z,99031.60
2022-11-16T20:02:01.241Z,99031.60
2022-11-16T20:03:34.362Z,99024.00
2022-11-16T20:05:07.366Z,99020.80
2022-11-16T20:06:40.881Z,99019.20
2022-11-16T20:08:12.729Z,99015.20
2022-11-16T20:09:47.173Z,99013.20
2022-11-16T20:11:30.679Z,99016.00
2022-11-16T20:13:03.285Z,99010.20
2022-11-16T20:14:36.597Z,99010.80
2022-11-16T20:16:12.899Z,99009.40
2022-11-16T20:19:34.057Z,99005.60
2022-11-16T20:21:07.801Z,99001.00
2022-11-16T20:22:39.590Z,98997.40
2022-11-16T20:24:17.876Z,98996.60
2022-11-16T20:25:49.894Z,98995.00
2022-11-16T20:27:24.935Z,98995.20
2022-11-16T20:28:59.167Z,98986.20
2022-11-16T20:30:30.965Z,98982.00
2022-11-16T20:32:02.963Z,98976.60
2022-11-16T20:33:35.237Z,98975.60
2022-11-16T20:35:08.740Z,98974.20
2022-11-16T20:36:44.238Z,98971.20
2022-11-16T20:38:21.589Z,98974.60
2022-11-16T20:39:57.222Z,98971.80
2022-11-16T20:41:34.993Z,98969.80
2022-11-16T20:43:11.363Z,98963.80
2022-11-16T20:44:44.126Z,98968.00
2022-11-16T20:46:17.950Z,98966.60
2022-11-16T20:47:51.145Z,98962.40
2022-11-16T20:49:25.467Z,98958.60
2022-11-16T21:02:58.354Z,98950.60
2022-11-16T21:04:29.439Z,98948.00
2022-11-16T21:06:00.928Z,98945.80
2022-11-16T21:07:33.770Z,98943.60
2022-11-16T21:09:07.034Z,98943.00
2022-11-16T21:10:39.172Z,98936.40
2022-11-16T21:12:29.473Z,98932.40
2022-11-16T21:14:17.886Z,98931.80
2022-11-16T21:16:02.499Z,98935.40
2022-11-16T21:17:37.009Z,98929.20
2022-11-16T21:19:10.971Z,98928.40
2022-11-16T21:20:42.779Z,98924.40
2022-11-16T21:22:16.617Z,98921.00
2022-11-16T21:23:51.700Z,98913.80
2022-11-16T21:25:23.387Z,98912.80
2022-11-16T21:26:54.553Z,98912.20
2022-11-16T21:28:25.848Z,98905.20
2022-11-16T21:29:56.994Z,98902.40
2022-11-16T21:31:34.294Z,98904.20
2022-11-16T21:33:08.561Z,98899.40
2022-11-16T21:34:40.370Z,98896.00
2022-11-16T21:36:26.523Z,98887.80
2022-11-16T21:38:00.965Z,98892.00
2022-11-16T21:39:32.481Z,98889.20
2022-11-16T21:41:06.662Z,98883.60
2022-11-16T21:42:38.374Z,98880.20
2022-11-16T21:44:10.858Z,98881.00
2022-11-16T21:45:44.140Z,98876.20
2022-11-16T21:47:15.275Z,98873.40
2022-11-16T21:48:50.395Z,98868.00
2022-11-16T21:50:36.805Z,98870.60
2022-11-16T21:52:08.418Z,98866.20
2022-11-16T21:53:40.887Z,98861.00
2022-11-16T21:56:13.842Z,98858.40
2022-11-16T21:57:56.013Z,98860.40
2022-11-16T21:59:27.336Z,98858.60
2022-11-16T22:01:01.473Z,98857.80
2022-11-16T22:02:32.647Z,98855.00
2022-11-16T22:04:23.017Z,98857.80
2022-11-16T22:06:16.980Z,98853.40
2022-11-16T22:07:53.676Z,98847.60
2022-11-16T22:09:24.893Z,98841.00
2022-11-16T22:10:58.782Z,98837.60
2022-11-16T22:12:29.895Z,98837.40
2022-11-16T22:14:00.958Z,98830.00
2022-11-16T22:15:32.255Z,98825.60
2022-11-16T22:17:03.801Z,98822.00
2022-11-16T22:18:35.379Z,98817.20
2022-11-16T22:20:08.054Z,98820.60
2022-11-16T22:21:39.219Z,98814.40
2022-11-16T22:23:11.655Z,98811.20
2022-11-16T22:24:43.109Z,98807.40
2022-11-16T22:26:14.268Z,98806.60
2022-11-16T22:28:13.927Z,98801.40
2022-11-16T22:29:39.807Z,98794.80
2022-11-16T22:31:14.293Z,98793.20
2022-11-16T22:45:20.728Z,98758.00
2022-11-16T22:46:53.292Z,98750.00
2022-11-16T22:48:31.182Z,98748.00
2022-11-16T22:50:03.485Z,98744.40
2022-11-16T22:51:34.746Z,98751.60
2022-11-16T22:53:05.882Z,98743.40
2022-11-16T22:54:38.227Z,98744.80
2022-11-16T22:56:10.306Z,98739.80
2022-11-16T22:57:41.358Z,98735.00
2022-11-16T22:59:12.642Z,98728.40
2022-11-16T23:00:44.828Z,98730.60
2022-11-16T23:07:43.270Z,98718.60
2022-11-16T23:09:14.665Z,98720.20
2022-11-16T23:11:04.422Z,98716.40
2022-11-16T23:13:57.942Z,98712.80
2022-11-16T23:15:48.217Z,98706.20
2022-11-16T23:17:19.425Z,98696.40
2022-11-16T23:18:50.527Z,98692.60
2022-11-16T23:20:40.263Z,98692.40
2022-11-16T23:22:39.221Z,98690.60
2022-11-16T23:24:32.513Z,98683.20
2022-11-16T23:26:32.929Z,98685.80
2022-11-16T23:28:13.890Z,98681.80
2022-11-16T23:29:45.125Z,98681.00
2022-11-16T23:31:16.223Z,98679.00
2022-11-16T23:32:47.386Z,98676.80
2022-11-16T23:34:19.460Z,98668.20
2022-11-16T23:35:54.150Z,98667.60
2022-11-16T23:37:25.176Z,98663.20
2022-11-16T23:38:56.235Z,98654.40
2022-11-16T23:40:37.139Z,98656.80
2022-11-16T23:42:28.348Z,98657.60
2022-11-16T23:43:59.799Z,98646.80
2022-11-16T23:45:30.888Z,98644.80
2022-11-16T23:47:02.994Z,98638.80
2022-11-16T23:48:34.054Z,98632.60
2022-11-16T23:50:05.487Z,98630.80
2022-11-16T23:51:37.893Z,98633.60
2022-11-16T23:53:10.462Z,98631.00
2022-11-16T23:54:41.560Z,98626.00
2022-11-16T23:56:15.354Z,98619.60
2022-11-16T23:57:46.480Z,98612.80
2022-11-16T23:59:17.571Z,98616.40
